Time;durP1;ratioP1;P1;durP2;ratioP2;P2;SDS_P1;SDS_P2;PMS_P1;PMS_P2;Temp;Humidity;BMP_temperature;BMP_pressure;BME280_temperature;BME280_humidity;BME280_pressure;Samples;Min_cycle;Max_cycle;Signal;HPM_P1;HPM_P2
2022/09/10 00:01:31;;;;;;;1999.90;999.90;;;17.40;99.90;;;;;;5094560;28;20131;-75
2022/09/10 00:03:57;;;;;;;1999.90;999.90;;;17.30;99.90;;;;;;5093265;28;20044;-75
2022/09/10 00:06:26;;;;;;;1999.90;999.90;;;17.40;99.90;;;;;;5093188;28;20602;-77
2022/09/10 00:08:57;;;;;;;1999.90;999.90;;;17.40;99.90;;;;;;5094244;28;20139;-75
2022/09/10 00:11:30;;;;;;;1999.90;999.90;;;17.40;99.90;;;;;;5096468;28;20040;-76
2022/09/10 00:13:58;;;;;;;1999.90;999.90;;;17.30;99.90;;;;;;5114442;28;20079;-75
2022/09/10 00:16:24;;;;;;;1999.90;999.90;;;17.40;99.90;;;;;;5114701;28;20122;-76
2022/09/10 00:18:50;;;;;;;1999.90;999.90;;;17.40;99.90;;;;;;5096649;28;20059;-75
2022/09/10 00:21:19;;;;;;;1999.90;999.90;;;17.40;99.90;;;;;;5114379;28;20039;-75
2022/09/10 00:23:46;;;;;;;1999.90;999.90;;;17.40;99.90;;;;;;5112299;28;20043;-76
2022/09/10 00:26:18;;;;;;;1999.90;999.90;;;17.40;99.90;;;;;;5114013;28;20492;-75
2022/09/10 00:28:44;;;;;;;1999.90;999.90;;;17.40;99.90;;;;;;5114197;28;20445;-75
2022/09/10 00:31:12;;;;;;;1999.90;999.90;;;17.30;99.90;;;;;;5113850;28;20044;-75
2022/09/10 00:33:38;;;;;;;1999.90;914.08;;;17.30;99.90;;;;;;5114239;28;20126;-75
2022/09/10 00:36:22;;;;;;;1999.90;999.90;;;17.40;99.90;;;;;;5096155;28;20130;-76
2022/09/10 00:38:49;;;;;;;1999.90;999.90;;;17.30;99.90;;;;;;5095729;28;20491;-75
2022/09/10 00:41:15;;;;;;;1999.90;999.90;;;17.40;99.90;;;;;;5113900;28;20048;-75
2022/09/10 00:43:57;;;;;;;1999.90;999.90;;;17.40;99.90;;;;;;5114046;28;20036;-75
2022/09/10 00:46:28;;;;;;;1999.90;770.00;;;17.40;99.90;;;;;;5095942;28;20055;-75
2022/09/10 00:48:57;;;;;;;1999.90;999.90;;;17.30;99.90;;;;;;5113858;28;20112;-78
2022/09/10 00:51:25;;;;;;;1999.90;999.90;;;17.40;99.90;;;;;;5114104;28;20094;-75
2022/09/10 00:53:52;;;;;;;1999.90;999.90;;;17.30;99.90;;;;;;5113371;28;20040;-75
2022/09/10 00:56:18;;;;;;;1999.90;999.90;;;17.40;99.90;;;;;;5095717;28;20047;-76
2022/09/10 00:58:45;;;;;;;1999.90;999.90;;;17.50;99.90;;;;;;5095596;28;20549;-75
2022/09/10 01:01:10;;;;;;;1999.90;999.90;;;17.50;99.90;;;;;;5113518;28;20083;-74
2022/09/10 01:03:37;;;;;;;1999.90;999.90;;;17.60;99.90;;;;;;5113591;28;20083;-75
2022/09/10 01:06:04;;;;;;;1999.90;999.90;;;17.50;99.90;;;;;;5095634;28;20056;-76
2022/09/10 01:08:30;;;;;;;1999.90;999.90;;;17.50;99.90;;;;;;5113258;28;20040;-75
2022/09/10 01:11:02;;;;;;;1999.90;999.90;;;17.40;99.90;;;;;;5095369;28;20184;-75
2022/09/10 01:13:49;;;;;;;1999.90;999.90;;;17.50;99.90;;;;;;5113564;28;20060;-75
2022/09/10 01:16:23;;;;;;;1999.90;999.90;;;17.60;99.90;;;;;;5113505;28;20043;-75
2022/09/10 01:18:52;;;;;;;1999.90;999.90;;;17.50;99.90;;;;;;5113724;28;20086;-75
2022/09/10 01:21:39;;;;;;;1999.90;999.90;;;17.50;99.90;;;;;;5112819;28;20055;-80
2022/09/10 01:24:37;;;;;;;1999.90;999.90;;;17.50;99.90;;;;;;5111973;28;20047;-75
2022/09/10 01:27:15;;;;;;;1999.90;748.72;;;17.60;99.90;;;;;;5080156;28;20400;-75
2022/09/10 01:30:02;;;;;;;1999.90;999.90;;;17.60;99.90;;;;;;5113056;28;20479;-76
2022/09/10 01:32:38;;;;;;;1999.90;999.90;;;17.60;99.90;;;;;;5112919;28;20044;-75
2022/09/10 01:35:21;;;;;;;1999.90;999.90;;;17.50;99.90;;;;;;5113281;28;20081;-74
2022/09/10 01:37:53;;;;;;;1999.90;999.90;;;17.60;99.90;;;;;;5113079;28;20039;-74
2022/09/10 01:40:28;;;;;;;1999.90;999.90;;;17.50;99.90;;;;;;5078350;28;20090;-75
2022/09/10 01:42:59;;;;;;;1999.90;999.90;;;17.60;99.90;;;;;;5094886;28;20040;-75
2022/09/10 01:45:26;;;;;;;1999.90;999.90;;;17.60;99.90;;;;;;5094990;28;20157;-75
2022/09/10 01:48:25;;;;;;;1999.90;999.90;;;17.60;99.90;;;;;;5094932;28;20048;-75
2022/09/10 01:51:47;;;;;;;1999.90;999.90;;;17.60;99.90;;;;;;5113072;28;20054;-74
2022/09/10 01:54:35;;;;;;;1999.90;999.90;;;17.60;99.90;;;;;;5048868;28;20045;-75
2022/09/10 01:57:33;;;;;;;1999.90;999.90;;;17.70;99.90;;;;;;5049103;28;20056;-75
2022/09/10 02:00:09;;;;;;;1999.90;999.90;;;17.70;99.90;;;;;;5102392;28;20064;-75
2022/09/10 02:02:38;;;;;;;1999.90;999.90;;;17.70;99.90;;;;;;5113010;28;20407;-74
2022/09/10 02:05:05;;;;;;;1999.90;999.90;;;17.70;99.90;;;;;;5112739;28;20046;-77
2022/09/10 02:07:34;;;;;;;1999.90;918.97;;;17.70;99.90;;;;;;5112357;28;20049;-75
2022/09/10 02:10:02;;;;;;;1999.90;999.90;;;17.70;99.90;;;;;;5112770;28;20062;-75
2022/09/10 02:12:28;;;;;;;1999.90;999.90;;;17.70;99.90;;;;;;5112428;28;20125;-75
2022/09/10 02:14:56;;;;;;;1999.90;999.90;;;17.80;99.90;;;;;;5112810;28;20614;-75
2022/09/10 02:17:27;;;;;;;1999.90;999.90;;;17.80;99.90;;;;;;5112191;28;20207;-74
2022/09/10 02:19:54;;;;;;;1999.90;999.90;;;17.80;99.90;;;;;;5112185;28;20035;-75
2022/09/10 02:22:22;;;;;;;1999.90;999.90;;;17.80;99.90;;;;;;5094027;28;20048;-76
2022/09/10 02:24:49;;;;;;;1999.90;940.60;;;17.80;99.90;;;;;;5094490;28;20052;-75
2022/09/10 02:27:15;;;;;;;1999.90;999.90;;;17.80;99.90;;;;;;5112383;28;20060;-75
2022/09/10 02:29:41;;;;;;;1999.90;999.90;;;17.80;99.90;;;;;;5094479;28;20492;-75
2022/09/10 02:32:08;;;;;;;1999.90;999.90;;;17.80;99.90;;;;;;5111566;28;20480;-75
2022/09/10 02:34:35;;;;;;;1999.90;999.90;;;17.70;99.90;;;;;;5112756;28;20050;-75
2022/09/10 02:37:02;;;;;;;1999.90;999.90;;;17.80;99.90;;;;;;5116417;28;20055;-75
2022/09/10 02:39:28;;;;;;;1999.90;872.55;;;17.80;99.90;;;;;;5116549;28;20476;-75
2022/09/10 02:41:54;;;;;;;1999.90;999.90;;;17.90;99.90;;;;;;5116034;28;20047;-75
2022/09/10 02:44:20;;;;;;;1999.90;999.90;;;17.90;99.90;;;;;;5098370;28;20040;-75
2022/09/10 02:46:46;;;;;;;1999.90;999.90;;;17.90;99.90;;;;;;5116733;28;20102;-75
2022/09/10 02:49:12;;;;;;;1999.90;999.90;;;17.90;99.90;;;;;;5116227;28;20527;-75
2022/09/10 02:51:40;;;;;;;1999.90;999.90;;;17.90;99.90;;;;;;5116127;28;20146;-78
2022/09/10 02:54:06;;;;;;;1999.90;820.45;;;17.80;99.90;;;;;;5097821;28;20035;-75
2022/09/10 02:56:31;;;;;;;1999.90;801.80;;;17.90;99.90;;;;;;5115938;28;20491;-75
2022/09/10 02:58:57;;;;;;;1999.90;999.90;;;17.80;99.90;;;;;;5116354;28;20043;-75
2022/09/10 03:01:23;;;;;;;1999.90;909.65;;;17.80;99.90;;;;;;5116136;28;20048;-75
2022/09/10 03:03:51;;;;;;;1999.90;999.90;;;17.80;99.90;;;;;;5081178;28;20055;-74
2022/09/10 03:06:16;;;;;;;1999.90;941.85;;;17.90;99.90;;;;;;5098078;28;20039;-75
2022/09/10 03:08:42;;;;;;;1999.90;711.88;;;17.80;99.90;;;;;;5115287;28;20080;-75
2022/09/10 03:11:08;;;;;;;1999.90;999.90;;;17.80;99.90;;;;;;5115758;28;20119;-75
2022/09/10 03:13:34;;;;;;;1999.90;999.90;;;17.70;99.90;;;;;;5097414;28;20052;-75
2022/09/10 03:16:02;;;;;;;1999.90;814.17;;;17.70;99.90;;;;;;5097956;28;20083;-75
2022/09/10 03:18:30;;;;;;;1999.90;999.90;;;17.70;99.90;;;;;;5115267;28;20047;-76
2022/09/10 03:21:13;;;;;;;1999.90;919.42;;;17.60;99.90;;;;;;5116285;28;20046;-76
2022/09/10 03:23:40;;;;;;;1999.90;999.90;;;17.70;99.90;;;;;;5096898;28;20039;-75
2022/09/10 03:26:05;;;;;;;1999.90;999.90;;;17.70;99.90;;;;;;5115972;28;20114;-76
2022/09/10 03:28:32;;;;;;;1999.90;999.90;;;17.80;99.90;;;;;;5115015;28;20300;-75
2022/09/10 03:30:59;;;;;;;1999.90;692.67;;;17.70;99.90;;;;;;5081003;28;20377;-75
2022/09/10 03:33:24;;;;;;;1999.90;999.90;;;17.70;99.90;;;;;;5114875;28;20127;-75
2022/09/10 03:35:53;;;;;;;1999.90;999.90;;;17.70;99.90;;;;;;5097927;28;20196;-75
2022/09/10 03:38:19;;;;;;;1999.90;999.90;;;17.80;99.90;;;;;;5114981;28;20052;-76
2022/09/10 03:40:45;;;;;;;1999.90;999.90;;;17.80;99.90;;;;;;5097429;28;20058;-75
2022/09/10 03:43:11;;;;;;;1999.90;999.90;;;17.80;99.90;;;;;;5114951;28;20043;-75
2022/09/10 03:45:38;;;;;;;1999.90;999.90;;;17.80;99.90;;;;;;5096955;28;20114;-75
2022/09/10 03:48:04;;;;;;;1999.90;999.90;;;17.90;99.90;;;;;;5114802;28;20449;-75
2022/09/10 03:50:30;;;;;;;1999.90;889.20;;;17.80;99.90;;;;;;5114711;28;20048;-75
2022/09/10 03:52:56;;;;;;;1999.90;999.90;;;17.80;99.90;;;;;;5114959;28;20039;-76
2022/09/10 03:55:22;;;;;;;1999.90;999.90;;;17.80;99.90;;;;;;5114931;28;20065;-75
2022/09/10 03:57:48;;;;;;;1999.90;999.90;;;17.90;99.90;;;;;;5115009;28;20047;-75
2022/09/10 04:00:14;;;;;;;1999.90;999.90;;;17.90;99.90;;;;;;5115368;28;20556;-75
2022/09/10 04:02:40;;;;;;;1999.90;999.90;;;17.90;99.90;;;;;;5113777;28;20052;-75
2022/09/10 04:05:07;;;;;;;1999.90;999.90;;;17.80;99.90;;;;;;5114513;28;20495;-74
2022/09/10 04:07:33;;;;;;;1999.90;999.90;;;17.80;99.90;;;;;;5114040;28;20047;-75
2022/09/10 04:09:59;;;;;;;1999.90;999.90;;;17.80;99.90;;;;;;5115136;28;20494;-74
2022/09/10 04:12:25;;;;;;;1999.90;999.90;;;17.80;99.90;;;;;;5114608;28;20091;-74
2022/09/10 04:14:52;;;;;;;1999.90;999.90;;;17.80;99.90;;;;;;5114598;28;20044;-74
2022/09/10 04:17:18;;;;;;;1999.90;999.90;;;17.80;99.90;;;;;;5097041;28;20044;-74
2022/09/10 04:19:44;;;;;;;1999.90;999.90;;;17.90;99.90;;;;;;5114432;28;20050;-74
2022/09/10 04:22:09;;;;;;;1999.90;761.95;;;17.80;99.90;;;;;;5114096;28;20044;-74
2022/09/10 04:24:35;;;;;;;1999.90;894.38;;;17.90;99.90;;;;;;5114453;28;20549;-74
2022/09/10 04:27:01;;;;;;;1999.90;900.03;;;17.90;99.90;;;;;;5115057;28;20047;-75
2022/09/10 04:29:27;;;;;;;1999.90;999.90;;;17.90;99.90;;;;;;5095761;28;20043;-75
2022/09/10 04:31:54;;;;;;;1999.90;999.90;;;17.90;99.90;;;;;;5096617;28;20484;-75
2022/09/10 04:34:21;;;;;;;1999.90;999.90;;;17.90;99.90;;;;;;5096471;28;20052;-74
2022/09/10 04:36:48;;;;;;;1999.90;999.90;;;17.90;99.90;;;;;;5114676;28;20063;-74
2022/09/10 04:39:15;;;;;;;1999.90;885.88;;;17.90;99.90;;;;;;5079295;28;20472;-75
2022/09/10 04:41:41;;;;;;;1999.90;999.90;;;17.90;99.90;;;;;;5079437;28;20043;-75
2022/09/10 04:44:07;;;;;;;1999.90;999.90;;;17.90;99.90;;;;;;5113882;28;20046;-74
2022/09/10 04:46:33;;;;;;;1999.90;999.90;;;17.90;99.90;;;;;;5113819;28;20039;-75
2022/09/10 04:48:59;;;;;;;1999.90;882.55;;;17.90;99.90;;;;;;5096031;28;20056;-74
2022/09/10 04:51:25;;;;;;;1999.90;999.90;;;17.90;99.90;;;;;;5095955;28;20391;-75
2022/09/10 04:53:51;;;;;;;1999.90;999.90;;;17.80;99.90;;;;;;5113448;28;20044;-75
2022/09/10 04:56:17;;;;;;;1999.90;999.90;;;17.90;99.90;;;;;;5095894;28;20048;-75
2022/09/10 04:58:43;;;;;;;1999.90;799.20;;;17.90;99.90;;;;;;5112602;28;20544;-74
2022/09/10 05:01:09;;;;;;;1999.90;999.90;;;17.90;99.90;;;;;;5078482;28;20043;-75
2022/09/10 05:03:35;;;;;;;1999.90;866.75;;;18.00;99.90;;;;;;5113655;28;20384;-75
2022/09/10 05:06:00;;;;;;;1999.90;835.17;;;17.90;99.90;;;;;;5113815;28;20372;-75
2022/09/10 05:08:26;;;;;;;1999.90;999.90;;;17.90;99.90;;;;;;5113545;28;20040;-76
2022/09/10 05:10:52;;;;;;;1999.90;999.90;;;18.00;99.90;;;;;;5113839;28;20046;-75
2022/09/10 05:13:18;;;;;;;1999.90;885.55;;;18.00;99.90;;;;;;5113719;28;20056;-75
2022/09/10 05:15:44;;;;;;;1999.90;999.90;;;17.90;99.90;;;;;;5113200;28;20048;-74
2022/09/10 05:18:10;;;;;;;1999.90;999.90;;;18.00;99.90;;;;;;5113216;28;20054;-74
2022/09/10 05:20:36;;;;;;;1999.90;999.90;;;18.00;99.90;;;;;;5113220;28;20043;-75
2022/09/10 05:23:02;;;;;;;1999.90;999.90;;;18.00;99.90;;;;;;5112865;28;20036;-75
2022/09/10 05:25:28;;;;;;;1999.90;999.90;;;18.10;99.90;;;;;;5113423;28;20047;-74
2022/09/10 05:27:54;;;;;;;1999.90;999.90;;;18.10;99.90;;;;;;5112114;28;20050;-75
2022/09/10 05:30:20;;;;;;;1999.90;999.90;;;18.10;99.90;;;;;;5077567;28;20055;-76
2022/09/10 05:32:46;;;;;;;1999.90;999.90;;;18.20;99.90;;;;;;5111897;28;20039;-75
2022/09/10 05:35:12;;;;;;;1999.90;999.90;;;18.10;99.90;;;;;;5113107;28;20105;-75
2022/09/10 05:37:38;;;;;;;1999.90;999.90;;;18.10;99.90;;;;;;5110984;28;20048;-75
2022/09/10 05:40:07;;;;;;;1999.90;999.90;;;18.20;99.90;;;;;;5112384;28;20051;-75
2022/09/10 05:42:34;;;;;;;1999.90;999.90;;;18.20;99.90;;;;;;5112184;28;20047;-75
2022/09/10 05:45:00;;;;;;;1999.90;999.90;;;18.10;99.90;;;;;;5094819;28;20039;-76
2022/09/10 05:47:27;;;;;;;1999.90;999.90;;;18.20;99.90;;;;;;5093964;28;20090;-76
2022/09/10 05:49:54;;;;;;;1999.90;999.90;;;18.20;99.90;;;;;;5112151;28;20052;-75
2022/09/10 05:52:19;;;;;;;1999.90;999.90;;;18.20;99.90;;;;;;5094602;28;20051;-75
2022/09/10 05:54:45;;;;;;;1999.90;901.85;;;18.20;99.90;;;;;;5094658;28;20139;-75
2022/09/10 05:57:11;;;;;;;1999.90;999.90;;;18.20;99.90;;;;;;5112473;28;20089;-76
2022/09/10 05:59:36;;;;;;;1999.90;896.88;;;18.20;99.90;;;;;;5094092;28;20048;-77
2022/09/10 06:02:02;;;;;;;1999.90;798.35;;;18.30;99.90;;;;;;5094352;28;20047;-76
2022/09/10 06:04:28;;;;;;;1999.90;878.83;;;18.30;99.90;;;;;;5113138;28;20384;-75
2022/09/10 06:06:54;;;;;;;1999.90;999.90;;;18.30;99.90;;;;;;5112306;28;20039;-77
2022/09/10 06:09:19;;;;;;;1999.90;999.90;;;18.40;99.90;;;;;;5112284;28;20047;-78
2022/09/10 06:11:48;;;;;;;1999.90;743.47;;;18.50;99.90;;;;;;5112383;28;20070;-75
2022/09/10 06:14:14;;;;;;;1999.90;891.40;;;18.40;99.90;;;;;;5112598;28;20476;-75
2022/09/10 06:16:40;;;;;;;1999.90;999.90;;;18.50;99.90;;;;;;5112298;28;20131;-75
2022/09/10 06:19:07;;;;;;;1999.90;999.90;;;18.50;99.90;;;;;;5094478;28;20047;-75
2022/09/10 06:21:33;;;;;;;1999.90;999.90;;;18.50;99.90;;;;;;5111928;28;20040;-76
2022/09/10 06:23:59;;;;;;;1999.90;999.90;;;18.00;99.90;;;;;;5112438;28;20195;-76
2022/09/10 06:26:25;;;;;;;1999.90;786.47;;;18.60;99.90;;;;;;5112188;28;20047;-75
2022/09/10 06:28:51;;;;;;;1999.90;787.38;;;18.60;99.90;;;;;;5111381;28;20043;-75
2022/09/10 06:31:18;;;;;;;1999.90;999.90;;;18.50;99.90;;;;;;5093882;28;20339;-75
2022/09/10 06:33:45;;;;;;;1999.90;885.33;;;18.60;99.90;;;;;;5094080;28;20126;-75
2022/09/10 06:36:12;;;;;;;1999.90;691.00;;;18.60;99.90;;;;;;5112290;28;20048;-75
2022/09/10 06:38:39;;;;;;;1999.90;756.17;;;18.60;99.90;;;;;;5093832;28;20043;-75
2022/09/10 06:41:10;;;;;;;1999.90;800.47;;;18.60;99.90;;;;;;5112516;28;20087;-75
2022/09/10 06:43:36;;;;;;;1999.90;759.67;;;18.70;99.90;;;;;;5111873;28;20044;-80
2022/09/10 06:46:08;;;;;;;1999.90;787.85;;;18.60;99.90;;;;;;5112676;28;20043;-75
2022/09/10 06:48:38;;;;;;;1999.90;714.13;;;18.70;99.90;;;;;;5112564;28;20043;-75
2022/09/10 06:51:06;;;;;;;1999.90;881.67;;;18.70;99.90;;;;;;5094377;28;20048;-75
2022/09/10 06:53:33;;;;;;;1999.90;736.88;;;18.80;99.90;;;;;;5111998;28;20551;-75
2022/09/10 06:56:00;;;;;;;1999.90;842.30;;;18.80;99.90;;;;;;5112095;28;20054;-75
2022/09/10 06:58:28;;;;;;;1999.90;800.65;;;18.80;99.90;;;;;;5112278;28;20372;-75
2022/09/10 07:00:54;;;;;;;1999.90;701.85;;;18.90;99.90;;;;;;5094288;28;20047;-75
2022/09/10 07:03:21;;;;;;;1999.90;844.15;;;18.90;99.90;;;;;;5093885;28;20506;-75
2022/09/10 07:05:47;;;;;;;1999.90;870.78;;;19.00;99.90;;;;;;5076825;28;20130;-75
2022/09/10 07:08:16;;;;;;;1999.90;729.17;;;19.00;99.90;;;;;;5111083;28;20043;-75
2022/09/10 07:10:44;;;;;;;1999.90;774.78;;;19.10;99.90;;;;;;5111667;28;20046;-75
2022/09/10 07:13:14;;;;;;;1957.75;345.15;;;19.00;99.90;;;;;;5111007;28;20503;-75
2022/09/10 07:15:47;;;;;;;1999.90;538.00;;;19.00;99.90;;;;;;5094762;28;20047;-80
2022/09/10 07:18:13;;;;;;;1999.90;531.53;;;19.00;99.90;;;;;;5111689;28;20081;-76
2022/09/10 07:20:43;;;;;;;1973.32;431.10;;;19.00;99.90;;;;;;5112667;28;20415;-75
2022/09/10 07:23:10;;;;;;;1999.90;807.03;;;19.10;99.90;;;;;;5096406;28;20040;-79
2022/09/10 07:25:37;;;;;;;1999.90;649.40;;;19.20;99.90;;;;;;5116008;28;20043;-76
2022/09/10 07:28:03;;;;;;;1999.90;758.45;;;19.10;99.90;;;;;;5114997;28;20070;-76
2022/09/10 07:30:29;;;;;;;1958.95;827.25;;;19.20;99.90;;;;;;5115854;28;20044;-75
2022/09/10 07:32:55;;;;;;;1999.90;999.90;;;19.20;99.90;;;;;;5097590;28;20051;-75
2022/09/10 07:35:21;;;;;;;1999.90;999.90;;;19.30;99.90;;;;;;5115645;28;20044;-75
2022/09/10 07:37:47;;;;;;;1920.70;410.55;;;19.30;99.90;;;;;;5115054;28;20096;-75
2022/09/10 07:40:14;;;;;;;1940.05;443.00;;;19.30;99.90;;;;;;5114833;28;20043;-76
2022/09/10 07:42:41;;;;;;;1999.90;443.20;;;19.40;99.90;;;;;;5115334;28;20054;-75
2022/09/10 07:45:08;;;;;;;1988.38;579.15;;;19.40;99.90;;;;;;5115359;28;20407;-76
2022/09/10 07:47:34;;;;;;;1288.82;182.93;;;19.50;99.90;;;;;;5115440;28;20040;-80
2022/09/10 07:49:59;;;;;;;1999.90;531.10;;;19.60;99.90;;;;;;5114507;28;20097;-75
2022/09/10 07:52:25;;;;;;;1999.90;593.53;;;19.70;99.90;;;;;;5114797;28;20123;-76
2022/09/10 07:54:51;;;;;;;1999.90;999.90;;;19.80;99.90;;;;;;5096422;28;20476;-75
2022/09/10 07:57:16;;;;;;;1999.90;999.90;;;19.90;99.90;;;;;;5113543;28;20118;-76
2022/09/10 07:59:42;;;;;;;1553.32;310.58;;;20.00;99.90;;;;;;5096130;28;20468;-75
2022/09/10 08:02:14;;;;;;;1999.90;999.90;;;20.10;99.90;;;;;;5113259;28;20096;-77
2022/09/10 08:04:39;;;;;;;1999.90;999.90;;;20.10;99.90;;;;;;5112583;28;20055;-76
2022/09/10 08:07:05;;;;;;;1999.90;999.90;;;20.10;99.90;;;;;;5113213;28;20043;-75
2022/09/10 08:09:31;;;;;;;1999.90;999.90;;;20.20;99.90;;;;;;5078987;28;20043;-76
2022/09/10 08:11:57;;;;;;;1999.90;999.90;;;20.10;99.90;;;;;;5112342;28;20044;-75
2022/09/10 08:14:23;;;;;;;1999.90;999.90;;;20.20;99.90;;;;;;5113560;28;20051;-79
2022/09/10 08:16:49;;;;;;;1999.90;999.90;;;20.30;99.90;;;;;;5113208;28;20115;-76
2022/09/10 08:19:16;;;;;;;1999.90;999.90;;;20.20;99.90;;;;;;5113227;28;20054;-77
2022/09/10 08:21:43;;;;;;;1999.90;999.90;;;20.20;99.90;;;;;;5113947;28;20119;-75
2022/09/10 08:24:09;;;;;;;1999.90;999.90;;;20.20;99.90;;;;;;5094402;28;20137;-75
2022/09/10 08:26:35;;;;;;;1999.90;999.90;;;20.30;99.90;;;;;;5096198;28;20094;-77
2022/09/10 08:29:01;;;;;;;1999.90;999.90;;;20.20;99.90;;;;;;5094717;28;20075;-75
2022/09/10 08:31:27;;;;;;;1999.90;999.90;;;20.20;99.90;;;;;;5113246;28;20403;-75
2022/09/10 08:33:55;;;;;;;1999.90;999.90;;;20.30;99.90;;;;;;5111278;28;20050;-75
2022/09/10 08:36:22;;;;;;;1999.90;999.90;;;20.50;99.90;;;;;;5112835;28;20039;-77
2022/09/10 08:38:49;;;;;;;1999.90;999.90;;;20.70;99.90;;;;;;5113980;28;20043;-75
2022/09/10 08:41:20;;;;;;;1999.90;892.33;;;20.70;99.90;;;;;;5110710;28;20052;-75
2022/09/10 08:43:52;;;;;;;1999.90;880.65;;;20.80;99.90;;;;;;5113512;28;20079;-75
2022/09/10 08:46:22;;;;;;;1999.90;999.90;;;20.80;99.90;;;;;;5114005;28;20119;-75
2022/09/10 08:49:21;;;;;;;1999.90;999.90;;;21.00;99.90;;;;;;5113254;28;20381;-75
2022/09/10 08:51:53;;;;;;;1999.90;999.90;;;21.10;99.90;;;;;;5095712;28;20062;-74
2022/09/10 08:54:29;;;;;;;1999.90;999.90;;;21.10;99.90;;;;;;5094945;28;20043;-76
2022/09/10 08:57:00;;;;;;;1999.90;999.90;;;21.10;99.90;;;;;;5112697;28;20039;-75
2022/09/10 08:59:33;;;;;;;1999.90;999.90;;;21.10;99.90;;;;;;5096442;28;20040;-77
2022/09/10 09:02:23;;;;;;;1999.90;999.90;;;21.10;99.90;;;;;;5112781;28;20059;-76
2022/09/10 09:04:56;;;;;;;1999.90;999.90;;;21.20;99.90;;;;;;5102496;28;20085;-76
2022/09/10 09:07:22;;;;;;;1999.90;999.90;;;21.40;99.90;;;;;;5112980;28;20069;-75
2022/09/10 09:09:53;;;;;;;1999.90;999.90;;;21.60;99.90;;;;;;5095260;28;20101;-76
2022/09/10 09:12:31;;;;;;;1999.90;983.47;;;21.90;99.90;;;;;;5112572;28;20091;-75
2022/09/10 09:15:08;;;;;;;1999.90;998.50;;;22.20;99.90;;;;;;5094890;28;20044;-81
2022/09/10 09:17:52;;;;;;;1999.90;999.90;;;22.30;99.90;;;;;;5095052;28;20340;-76
2022/09/10 09:20:37;;;;;;;1999.90;454.15;;;22.50;99.90;;;;;;5113324;28;20139;-76
2022/09/10 09:23:21;;;;;;;1992.53;669.55;;;22.50;99.90;;;;;;5112450;28;20039;-78
2022/09/10 09:26:02;;;;;;;1999.90;999.90;;;22.80;99.90;;;;;;5094271;28;20040;-79
2022/09/10 09:28:47;;;;;;;1999.90;999.90;;;22.70;99.90;;;;;;5113237;28;20032;-77
2022/09/10 09:31:24;;;;;;;1999.90;999.90;;;22.50;99.90;;;;;;5077676;28;20269;-77
2022/09/10 09:33:52;;;;;;;1730.38;796.58;;;22.80;99.90;;;;;;5078758;28;20097;-78
2022/09/10 09:36:22;;;;;;;;;;;23.10;99.90;;;;;;5112264;28;20052;-77
2022/09/10 09:38:49;;;;;;;1999.90;999.90;;;23.40;99.90;;;;;;5113244;28;20084;-77
2022/09/10 09:41:22;;;;;;;1999.90;999.90;;;23.80;99.90;;;;;;5094358;28;20058;-78
2022/09/10 09:43:57;;;;;;;1999.90;999.90;;;23.90;99.90;;;;;;5112008;28;20388;-79
2022/09/10 09:46:23;;;;;;;1999.90;999.90;;;23.90;99.90;;;;;;5093773;28;20479;-78
2022/09/10 09:48:56;;;;;;;1999.90;999.90;;;24.30;99.90;;;;;;5094082;28;20061;-78
2022/09/10 09:51:24;;;;;;;1999.90;999.90;;;24.60;99.90;;;;;;5095016;28;20541;-79
2022/09/10 09:54:02;;;;;;;;;;;24.60;99.90;;;;;;5112963;28;20044;-79
2022/09/10 09:56:36;;;;;;;1999.90;999.90;;;24.80;99.90;;;;;;5113181;28;19923;-81
2022/09/10 09:59:10;;;;;;;1999.90;999.90;;;24.90;99.90;;;;;;5112946;28;20123;-79
2022/09/10 10:01:39;;;;;;;1504.30;674.90;;;24.90;99.90;;;;;;5113303;28;20114;-79
2022/09/10 10:04:20;;;;;;;1999.90;999.90;;;25.00;99.90;;;;;;5094199;28;20047;-79
2022/09/10 10:06:52;;;;;;;1999.90;999.90;;;25.10;99.90;;;;;;5112673;28;20043;-78
2022/09/10 10:09:23;;;;;;;1999.90;999.90;;;25.20;99.90;;;;;;5094296;28;20400;-79
2022/09/10 10:11:58;;;;;;;1999.90;999.90;;;25.50;99.90;;;;;;5112775;28;20060;-78
2022/09/10 10:14:38;;;;;;;1999.90;999.90;;;25.40;99.90;;;;;;5112794;28;20542;-80
2022/09/10 10:17:21;;;;;;;1999.90;999.90;;;25.50;99.90;;;;;;5094737;28;20093;-79
2022/09/10 10:19:58;;;;;;;1999.90;999.90;;;25.40;99.90;;;;;;5095233;28;20147;-80
2022/09/10 10:22:25;;;;;;;1999.90;999.90;;;25.30;99.90;;;;;;5094380;28;20361;-80
2022/09/10 10:24:53;;;;;;;1999.90;999.90;;;25.30;99.90;;;;;;5111230;28;20468;-80
2022/09/10 10:27:31;;;;;;;981.38;418.23;;;25.30;99.90;;;;;;5112414;28;20054;-81
2022/09/10 10:30:06;;;;;;;;;;;25.30;99.90;;;;;;5095096;28;20046;-81
2022/09/10 10:32:45;;;;;;;1999.90;999.90;;;25.40;99.90;;;;;;5112596;28;19978;-80
2022/09/10 10:35:37;;;;;;;1999.90;999.90;;;25.60;99.90;;;;;;5094335;28;20441;-79
2022/09/10 10:38:26;;;;;;;1999.90;999.90;;;25.80;99.90;;;;;;5100840;28;20078;-81
2022/09/10 10:41:23;;;;;;;1999.90;999.90;;;25.90;99.90;;;;;;5093006;28;20047;-79
2022/09/10 10:43:58;;;;;;;1999.90;999.90;;;25.90;99.90;;;;;;5077446;28;20410;-79
2022/09/10 10:46:30;;;;;;;1999.90;999.90;;;25.90;99.90;;;;;;5093052;28;20605;-78
2022/09/10 10:48:59;;;;;;;1999.90;999.90;;;25.80;99.90;;;;;;5093783;28;20040;-79
2022/09/10 10:51:50;;;;;;;1999.90;999.90;;;25.80;99.90;;;;;;5112156;28;20140;-78
2022/09/10 10:54:50;;;;;;;1380.68;654.92;;;25.90;99.90;;;;;;5110823;28;20496;-79
2022/09/10 10:57:42;;;;;;;1999.90;999.90;;;25.90;99.90;;;;;;5095554;28;20058;-78
2022/09/10 11:00:13;;;;;;;1999.90;999.90;;;26.00;99.90;;;;;;5097623;28;20134;-80
2022/09/10 11:02:53;;;;;;;1999.90;999.90;;;25.90;99.90;;;;;;5115533;28;20480;-78
2022/09/10 11:05:31;;;;;;;1999.90;999.90;;;25.80;99.90;;;;;;5114667;28;20058;-78
2022/09/10 11:08:23;;;;;;;1999.90;999.90;;;25.80;99.90;;;;;;5081169;28;20108;-79
2022/09/10 11:11:24;;;;;;;1999.90;999.90;;;25.70;99.90;;;;;;5114705;28;20166;-78
2022/09/10 11:13:56;;;;;;;1999.90;999.90;;;25.50;99.90;;;;;;5111793;28;20055;-78
2022/09/10 11:16:40;;;;;;;1999.90;999.90;;;25.50;99.90;;;;;;5115617;28;20089;-79
2022/09/10 11:19:20;;;;;;;1999.90;999.90;;;25.50;99.90;;;;;;5116021;28;20059;-78
2022/09/10 11:22:05;;;;;;;1578.60;777.00;;;25.50;99.90;;;;;;5115961;28;20069;-78
2022/09/10 11:24:38;;;;;;;1666.03;830.30;;;25.60;99.90;;;;;;5097510;28;20090;-79
2022/09/10 11:27:06;;;;;;;1999.90;999.90;;;25.80;99.90;;;;;;5097340;28;20510;-79
2022/09/10 11:29:57;;;;;;;1999.90;999.90;;;26.20;99.90;;;;;;5096979;28;20055;-77
2022/09/10 11:32:43;;;;;;;1999.90;999.90;;;26.50;99.90;;;;;;5114919;28;20043;-76
2022/09/10 11:35:25;;;;;;;1999.90;999.90;;;26.80;99.90;;;;;;5116018;28;20066;-76
2022/09/10 11:38:17;;;;;;;1999.90;999.90;;;27.00;99.90;;;;;;5096783;28;20047;-76
2022/09/10 11:40:45;;;;;;;1999.90;999.90;;;27.30;99.90;;;;;;5097829;28;20047;-76
2022/09/10 11:43:25;;;;;;;1999.90;999.90;;;27.40;99.90;;;;;;5114712;28;20122;-81
2022/09/10 11:45:56;;;;;;;1999.90;999.90;;;27.50;99.90;;;;;;5097346;28;20507;-76
2022/09/10 11:48:46;;;;;;;1999.90;999.90;;;27.30;99.90;;;;;;5115055;28;20403;-76
2022/09/10 11:51:39;;;;;;;1999.90;999.90;;;27.20;99.90;;;;;;5080767;28;20185;-76
2022/09/10 11:54:17;;;;;;;1620.10;788.90;;;26.90;99.90;;;;;;5093453;28;20056;-77
2022/09/10 11:56:58;;;;;;;1999.90;999.90;;;26.80;99.90;;;;;;5114866;28;20084;-76
2022/09/10 11:59:45;;;;;;;1999.90;999.90;;;26.80;99.90;;;;;;5096931;28;20039;-76
2022/09/10 12:02:39;;;;;;;1611.35;512.95;;;26.80;99.90;;;;;;5114796;28;20087;-78
2022/09/10 12:05:11;;;;;;;1999.90;999.90;;;26.80;99.90;;;;;;5096922;28;20123;-76
2022/09/10 12:07:49;;;;;;;1999.90;999.90;;;26.70;99.90;;;;;;5113727;28;20484;-77
2022/09/10 12:10:44;;;;;;;1999.90;999.90;;;26.70;99.90;;;;;;5096930;28;20157;-82
2022/09/10 12:13:13;;;;;;;1999.90;999.90;;;26.80;99.90;;;;;;5096287;28;20410;-76
2022/09/10 12:15:47;;;;;;;1999.90;999.90;;;26.90;99.90;;;;;;5096564;28;20492;-76
2022/09/10 12:18:20;;;;;;;1999.90;999.90;;;26.60;99.90;;;;;;5113437;28;20481;-81
2022/09/10 12:20:58;;;;;;;1999.90;999.90;;;26.80;99.90;;;;;;5097060;28;20039;-77